Time;durP1;ratioP1;P1;durP2;ratioP2;P2;SDS_P1;SDS_P2;PMS_P1;PMS_P2;Temp;Humidity;BMP_temperature;BMP_pressure;BME280_temperature;BME280_humidity;BME280_pressure;Samples;Min_cycle;Max_cycle;Signal;HPM_P1;HPM_P2
2022/03/29 00:01:00;;;;;;;26.92;14.88;;;6.60;99.90;;;;;;5033378;28;20099;-75
2022/03/29 00:03:26;;;;;;;31.33;14.98;;;6.60;99.90;;;;;;5033515;28;20041;-77
2022/03/29 00:05:51;;;;;;;29.15;15.68;;;6.60;99.90;;;;;;5033122;28;20524;-77
2022/03/29 00:08:17;;;;;;;29.83;15.88;;;6.50;99.90;;;;;;5035480;28;20057;-76
2022/03/29 00:10:44;;;;;;;30.92;15.80;;;6.50;99.90;;;;;;5036761;28;20568;-76
2022/03/29 00:13:10;;;;;;;28.42;16.00;;;6.50;99.90;;;;;;5037542;28;20095;-76
2022/03/29 00:15:36;;;;;;;26.80;15.30;;;6.50;99.90;;;;;;5037056;28;20045;-75
2022/03/29 00:18:02;;;;;;;26.45;15.38;;;6.50;99.90;;;;;;5037280;28;20135;-76
2022/03/29 00:20:28;;;;;;;29.08;16.13;;;6.50;99.90;;;;;;5019683;28;20037;-76
2022/03/29 00:22:53;;;;;;;33.43;18.50;;;6.50;99.90;;;;;;5036918;28;20085;-76
2022/03/29 00:25:19;;;;;;;29.35;16.63;;;6.50;99.90;;;;;;5036705;28;20170;-76
2022/03/29 00:27:45;;;;;;;29.35;17.00;;;6.50;99.90;;;;;;5035647;28;20068;-76
2022/03/29 00:30:11;;;;;;;32.53;17.77;;;6.50;99.90;;;;;;5036770;28;20076;-75
2022/03/29 00:32:40;;;;;;;35.75;19.17;;;6.50;99.90;;;;;;5036780;28;20124;-76
2022/03/29 00:35:07;;;;;;;31.50;18.13;;;6.50;99.90;;;;;;5036622;28;20485;-77
2022/03/29 00:37:34;;;;;;;32.25;18.88;;;6.50;99.90;;;;;;5036605;28;20086;-76
2022/03/29 00:39:59;;;;;;;;;;;6.50;99.90;;;;;;5036878;28;20510;-76
2022/03/29 00:42:25;;;;;;;33.70;18.88;;;6.50;99.90;;;;;;5036526;28;19921;-77
2022/03/29 00:44:50;;;;;;;33.38;18.13;;;6.50;99.90;;;;;;5036551;28;20556;-76
2022/03/29 00:47:16;;;;;;;36.20;19.92;;;6.50;99.90;;;;;;5036477;28;20374;-76
2022/03/29 00:49:42;;;;;;;33.75;19.85;;;6.60;99.90;;;;;;5019133;28;20037;-76
2022/03/29 00:52:08;;;;;;;37.20;20.75;;;6.60;99.90;;;;;;5036261;28;20049;-77
2022/03/29 00:54:37;;;;;;;38.92;21.65;;;6.70;99.90;;;;;;5036344;28;20049;-76
2022/03/29 00:57:04;;;;;;;38.92;22.08;;;6.70;99.90;;;;;;5036733;28;20045;-76
2022/03/29 00:59:30;;;;;;;42.63;22.95;;;6.70;99.90;;;;;;5036740;28;20079;-76
2022/03/29 01:01:57;;;;;;;43.58;24.35;;;6.70;99.90;;;;;;5036107;28;20529;-76
2022/03/29 01:04:29;;;;;;;44.20;24.02;;;6.70;99.90;;;;;;5036154;28;20095;-76
2022/03/29 01:07:01;;;;;;;46.50;25.63;;;6.70;99.90;;;;;;5035823;28;20049;-76
2022/03/29 01:09:28;;;;;;;46.55;26.10;;;6.70;99.90;;;;;;5036557;28;20400;-76
2022/03/29 01:11:53;;;;;;;45.35;25.08;;;6.70;99.90;;;;;;5036010;28;20048;-76
2022/03/29 01:14:24;;;;;;;42.55;24.40;;;6.60;99.90;;;;;;5035980;28;20132;-77
2022/03/29 01:19:37;;;;;;;40.47;22.58;;;6.60;99.90;;;;;;5035138;28;20097;-75
2022/03/29 01:22:05;;;;;;;40.53;22.50;;;6.60;99.90;;;;;;5035940;28;20485;-76
2022/03/29 01:24:32;;;;;;;46.42;24.73;;;6.60;99.90;;;;;;5036056;28;20052;-76
2022/03/29 01:27:00;;;;;;;42.72;24.23;;;6.50;99.90;;;;;;5035748;28;20057;-76
2022/03/29 01:29:28;;;;;;;46.08;23.27;;;6.50;99.90;;;;;;5035430;28;20057;-77
2022/03/29 01:31:54;;;;;;;39.25;22.33;;;6.50;99.90;;;;;;5035645;28;20057;-76
2022/03/29 01:34:20;;;;;;;43.85;23.75;;;6.50;99.90;;;;;;5035588;28;20477;-77
2022/03/29 01:36:46;;;;;;;43.10;22.35;;;6.50;99.90;;;;;;5035592;28;20478;-76
2022/03/29 01:39:12;;;;;;;42.53;23.83;;;6.50;99.90;;;;;;5035533;28;20161;-75
2022/03/29 01:41:38;;;;;;;46.53;24.67;;;6.50;99.90;;;;;;5035252;28;20444;-77
2022/03/29 01:44:06;;;;;;;46.90;26.10;;;6.50;99.90;;;;;;5035661;28;20053;-77
2022/03/29 01:46:31;;;;;;;46.65;24.48;;;6.50;99.90;;;;;;5035374;28;20646;-76
2022/03/29 01:48:57;;;;;;;46.03;23.77;;;6.40;99.90;;;;;;5035280;28;20531;-76
2022/03/29 01:51:23;;;;;;;40.08;22.70;;;6.40;99.90;;;;;;5035351;28;20037;-77
2022/03/29 01:53:54;;;;;;;42.55;22.67;;;6.30;99.90;;;;;;5035227;28;20103;-76
2022/03/29 01:56:20;;;;;;;43.92;22.80;;;6.30;99.90;;;;;;5035483;28;20188;-77
2022/03/29 01:58:45;;;;;;;43.17;23.35;;;6.40;99.90;;;;;;5035139;28;20045;-76
2022/03/29 02:01:11;;;;;;;46.17;21.88;;;6.40;99.90;;;;;;5035057;28;20052;-77
2022/03/29 02:03:36;;;;;;;45.25;24.02;;;6.40;99.90;;;;;;5034793;28;20163;-77
2022/03/29 02:06:02;;;;;;;38.78;21.38;;;6.40;99.90;;;;;;5035003;28;20045;-76
2022/03/29 02:08:27;;;;;;;42.70;22.25;;;6.40;99.90;;;;;;5035455;28;20049;-75
2022/03/29 02:10:53;;;;;;;39.53;20.77;;;6.30;99.90;;;;;;5034943;28;20472;-77
2022/03/29 02:13:19;;;;;;;38.25;20.70;;;6.30;99.90;;;;;;5034880;28;20044;-76
2022/03/29 02:15:45;;;;;;;40.25;21.85;;;6.40;99.90;;;;;;5034755;28;20045;-76
2022/03/29 02:18:11;;;;;;;38.35;21.48;;;6.40;99.90;;;;;;5034611;28;20482;-76
2022/03/29 02:20:36;;;;;;;43.63;20.80;;;6.40;99.90;;;;;;5035215;28;20050;-76
2022/03/29 02:23:07;;;;;;;36.80;20.73;;;6.40;99.90;;;;;;5034557;28;20066;-77
2022/03/29 02:25:33;;;;;;;37.45;20.35;;;6.40;99.90;;;;;;5034671;28;20083;-76
2022/03/29 02:27:59;;;;;;;35.72;18.48;;;6.40;99.90;;;;;;5034745;28;20050;-76
2022/03/29 02:30:25;;;;;;;36.67;20.40;;;6.40;99.90;;;;;;5034194;28;20046;-76
2022/03/29 02:32:50;;;;;;;35.47;19.65;;;6.40;99.90;;;;;;5033820;28;20179;-75
2022/03/29 02:35:16;;;;;;;33.75;17.55;;;6.40;99.90;;;;;;5034479;28;20512;-75
2022/03/29 02:37:42;;;;;;;34.92;17.70;;;6.40;99.90;;;;;;5034366;28;20045;-76
2022/03/29 02:40:09;;;;;;;34.97;19.10;;;6.40;99.90;;;;;;5034220;28;20055;-76
2022/03/29 02:42:46;;;;;;;35.92;19.33;;;6.40;99.90;;;;;;5034279;28;20045;-76
2022/03/29 02:45:20;;;;;;;31.80;17.77;;;6.30;99.90;;;;;;5034320;28;20045;-76
2022/03/29 02:47:49;;;;;;;35.45;19.63;;;6.40;99.90;;;;;;5034072;28;20045;-77
2022/03/29 02:50:15;;;;;;;38.05;18.95;;;6.30;99.90;;;;;;5034256;28;20412;-76
2022/03/29 02:52:55;;;;;;;36.78;19.13;;;6.30;99.90;;;;;;5034162;28;20045;-76
2022/03/29 02:55:23;;;;;;;40.15;19.88;;;6.40;99.90;;;;;;5034253;28;20092;-76
2022/03/29 02:57:49;;;;;;;38.55;19.23;;;6.40;99.90;;;;;;5034050;28;20053;-77
2022/03/29 03:00:16;;;;;;;33.78;18.25;;;6.40;99.90;;;;;;5034012;28;20477;-76
2022/03/29 03:02:47;;;;;;;36.42;19.00;;;6.40;99.90;;;;;;5033964;28;20041;-77
2022/03/29 03:05:13;;;;;;;36.38;17.65;;;6.40;99.90;;;;;;5033981;28;20448;-75
2022/03/29 03:07:40;;;;;;;33.97;18.35;;;6.30;99.90;;;;;;5034093;28;20091;-77
2022/03/29 03:10:06;;;;;;;31.83;17.15;;;6.30;99.90;;;;;;5033886;28;20053;-77
2022/03/29 03:12:39;;;;;;;34.35;17.02;;;6.30;99.90;;;;;;5033760;28;20041;-76
2022/03/29 03:15:08;;;;;;;33.47;16.92;;;6.30;99.90;;;;;;5033738;28;20048;-77
2022/03/29 03:17:34;;;;;;;32.53;17.08;;;6.30;99.90;;;;;;5034102;28;20045;-76
2022/03/29 03:20:00;;;;;;;35.25;17.30;;;6.30;99.90;;;;;;5033564;28;20060;-76
2022/03/29 03:22:26;;;;;;;34.00;18.00;;;6.30;99.90;;;;;;5033646;28;20038;-76
2022/03/29 03:24:52;;;;;;;32.70;17.67;;;6.40;99.90;;;;;;5016305;28;20053;-76
2022/03/29 03:27:18;;;;;;;37.03;17.95;;;6.30;99.90;;;;;;5033626;28;20481;-77
2022/03/29 03:29:47;;;;;;;36.72;16.90;;;6.30;99.90;;;;;;5033589;28;20485;-75
2022/03/29 03:32:13;;;;;;;36.97;17.52;;;6.30;99.90;;;;;;5033553;28;20057;-75
2022/03/29 03:34:40;;;;;;;33.08;16.17;;;6.30;99.90;;;;;;5033565;28;20049;-76
2022/03/29 03:37:06;;;;;;;32.22;17.58;;;6.40;99.90;;;;;;5033387;28;20087;-77
2022/03/29 03:39:34;;;;;;;36.28;17.73;;;6.30;99.90;;;;;;5033568;28;20405;-76
2022/03/29 03:42:04;;;;;;;35.83;18.02;;;6.30;99.90;;;;;;5033526;28;20045;-73
2022/03/29 03:44:29;;;;;;;39.00;18.73;;;6.40;99.90;;;;;;5037445;28;20515;-75
2022/03/29 03:46:55;;;;;;;37.58;17.52;;;6.30;99.90;;;;;;5037577;28;20041;-76
2022/03/29 03:49:21;;;;;;;39.25;18.55;;;6.30;99.90;;;;;;5037584;28;20050;-76
2022/03/29 03:51:47;;;;;;;31.20;16.13;;;6.30;99.90;;;;;;5037662;28;20052;-75
2022/03/29 03:54:12;;;;;;;32.30;16.20;;;6.30;99.90;;;;;;5037464;28;20041;-75
2022/03/29 03:56:38;;;;;;;31.70;16.50;;;6.40;99.90;;;;;;5037395;28;20059;-75
2022/03/29 03:59:04;;;;;;;33.67;17.48;;;6.40;99.90;;;;;;5037771;28;20088;-76
2022/03/29 04:01:29;;;;;;;33.85;16.10;;;6.40;99.90;;;;;;5037325;28;20057;-75
2022/03/29 04:03:55;;;;;;;31.75;15.25;;;6.40;99.90;;;;;;5037223;28;20508;-75
2022/03/29 04:06:21;;;;;;;28.70;15.52;;;6.40;99.90;;;;;;5037267;28;20050;-76
2022/03/29 04:08:46;;;;;;;34.05;15.93;;;6.40;99.90;;;;;;5037199;28;20050;-76
2022/03/29 04:11:12;;;;;;;31.75;15.98;;;6.40;99.90;;;;;;5036754;28;20504;-76
2022/03/29 04:13:38;;;;;;;33.47;16.98;;;6.50;99.90;;;;;;5037108;28;20515;-76
2022/03/29 04:16:04;;;;;;;32.33;15.23;;;6.50;99.90;;;;;;5037104;28;20042;-75
2022/03/29 04:18:30;;;;;;;27.77;14.02;;;6.50;99.90;;;;;;5036833;28;20076;-75
2022/03/29 04:20:57;;;;;;;30.52;16.45;;;6.40;99.90;;;;;;5037006;28;20133;-75
2022/03/29 04:23:22;;;;;;;34.15;16.38;;;6.40;99.90;;;;;;5036810;28;20451;-76
2022/03/29 04:25:48;;;;;;;31.88;16.08;;;6.40;99.90;;;;;;5036740;28;20045;-76
2022/03/29 04:28:13;;;;;;;28.80;14.15;;;6.40;99.90;;;;;;5037311;28;20124;-76
2022/03/29 04:30:39;;;;;;;27.42;14.55;;;6.40;99.90;;;;;;5037104;28;20068;-75
2022/03/29 04:33:06;;;;;;;29.75;16.42;;;6.40;99.90;;;;;;5037057;28;20048;-76
2022/03/29 04:35:32;;;;;;;31.63;15.57;;;6.40;99.90;;;;;;5036723;28;20052;-75
2022/03/29 04:37:57;;;;;;;31.02;15.45;;;6.50;99.90;;;;;;5019330;28;20048;-75
2022/03/29 04:40:23;;;;;;;34.33;15.30;;;6.50;99.90;;;;;;5036712;28;20046;-76
2022/03/29 04:42:50;;;;;;;29.80;16.13;;;6.50;99.90;;;;;;5036940;28;20076;-75
2022/03/29 04:45:17;;;;;;;31.88;15.38;;;6.50;99.90;;;;;;5036580;28;20049;-75
2022/03/29 04:47:45;;;;;;;30.70;16.17;;;6.50;99.90;;;;;;5036468;28;20046;-74
2022/03/29 04:50:11;;;;;;;;;;;6.50;99.90;;;;;;5036879;28;20053;-75
2022/03/29 04:52:39;;;;;;;29.58;15.55;;;6.50;99.90;;;;;;5036414;28;20025;-75
2022/03/29 04:55:06;;;;;;;30.58;16.02;;;6.60;99.90;;;;;;5034779;28;20048;-75
2022/03/29 04:57:31;;;;;;;27.13;15.88;;;6.60;99.90;;;;;;5036327;28;20045;-75
2022/03/29 04:59:57;;;;;;;34.30;16.58;;;6.60;99.90;;;;;;5036253;28;20052;-75
2022/03/29 05:02:23;;;;;;;30.58;15.85;;;6.60;99.90;;;;;;5036121;28;20452;-76
2022/03/29 05:04:49;;;;;;;31.35;16.65;;;6.60;99.90;;;;;;5036200;28;20049;-76
2022/03/29 05:07:15;;;;;;;35.30;15.65;;;6.60;99.90;;;;;;5036110;28;20052;-77
2022/03/29 05:09:41;;;;;;;28.60;14.10;;;6.60;99.90;;;;;;5036050;28;20080;-77
2022/03/29 05:12:07;;;;;;;26.75;14.85;;;6.60;99.90;;;;;;5035989;28;20088;-77
2022/03/29 05:14:34;;;;;;;30.90;14.25;;;6.60;99.90;;;;;;5035945;28;20095;-77
2022/03/29 05:17:00;;;;;;;31.75;16.17;;;6.60;99.90;;;;;;5035791;28;20049;-75
2022/03/29 05:19:26;;;;;;;28.75;15.00;;;6.60;99.90;;;;;;5035878;28;20385;-77
2022/03/29 05:21:52;;;;;;;29.42;15.00;;;6.60;99.90;;;;;;5018387;28;20576;-75
2022/03/29 05:24:17;;;;;;;29.42;15.25;;;6.60;99.90;;;;;;5035728;28;20132;-75
2022/03/29 05:26:43;;;;;;;27.85;14.18;;;6.60;99.90;;;;;;5035810;28;20473;-75
2022/03/29 05:29:11;;;;;;;28.52;14.77;;;6.60;99.90;;;;;;5035489;28;20470;-77
2022/03/29 05:31:37;;;;;;;30.67;15.65;;;6.60;99.90;;;;;;5035867;28;20053;-76
2022/03/29 05:34:03;;;;;;;29.70;15.03;;;6.50;99.90;;;;;;5035818;28;20045;-76
2022/03/29 05:36:28;;;;;;;29.13;14.65;;;6.50;99.90;;;;;;5035606;28;20056;-76
2022/03/29 05:38:54;;;;;;;26.80;15.02;;;6.50;99.90;;;;;;5035533;28;20481;-76
2022/03/29 05:41:21;;;;;;;26.42;13.98;;;6.50;99.90;;;;;;5035559;28;20080;-76
2022/03/29 05:43:48;;;;;;;34.17;15.75;;;6.50;99.90;;;;;;5035384;28;20048;-76
2022/03/29 05:49:12;;;;;;;28.05;14.75;;;6.50;99.90;;;;;;5022984;28;19921;-76
2022/03/29 05:51:37;;;;;;;27.33;14.43;;;6.50;99.90;;;;;;5034963;28;20588;-76
2022/03/29 05:54:04;;;;;;;32.05;15.07;;;6.50;99.90;;;;;;5035230;28;20512;-75
2022/03/29 05:56:30;;;;;;;31.23;15.95;;;6.50;99.90;;;;;;5035110;28;20057;-75
2022/03/29 05:58:56;;;;;;;32.90;14.77;;;6.60;99.90;;;;;;5035152;28;20041;-75
2022/03/29 06:01:21;;;;;;;35.53;16.25;;;6.60;99.90;;;;;;5035100;28;20128;-75
2022/03/29 06:03:47;;;;;;;27.73;15.80;;;6.50;99.90;;;;;;5034881;28;20081;-74
2022/03/29 06:06:15;;;;;;;28.35;15.38;;;6.50;99.90;;;;;;5034382;28;20053;-75
2022/03/29 06:08:41;;;;;;;31.10;14.90;;;6.60;99.90;;;;;;5034797;28;20077;-75
2022/03/29 06:11:07;;;;;;;25.17;14.23;;;6.60;99.90;;;;;;5035194;28;20049;-75
2022/03/29 06:13:33;;;;;;;28.60;14.32;;;6.60;99.90;;;;;;5034921;28;20037;-74
2022/03/29 06:15:59;;;;;;;31.13;14.97;;;6.60;99.90;;;;;;5034759;28;20045;-75
2022/03/29 06:18:25;;;;;;;29.50;15.67;;;6.70;99.90;;;;;;5034765;28;20137;-75
2022/03/29 06:20:51;;;;;;;31.77;15.10;;;6.70;99.90;;;;;;5034655;28;20349;-75
2022/03/29 06:23:17;;;;;;;31.08;16.48;;;6.70;99.90;;;;;;5017564;28;20480;-75
2022/03/29 06:25:43;;;;;;;35.33;16.00;;;6.70;99.90;;;;;;5034391;28;20484;-76
2022/03/29 06:28:10;;;;;;;32.57;16.10;;;6.70;99.90;;;;;;5034852;28;20049;-76
2022/03/29 06:30:37;;;;;;;33.20;15.52;;;6.70;99.90;;;;;;5034398;28;20057;-75
2022/03/29 06:33:03;;;;;;;26.90;16.00;;;6.70;99.90;;;;;;5034522;28;20037;-78
2022/03/29 06:35:31;;;;;;;;;;;6.80;99.90;;;;;;5035170;28;20073;-75
2022/03/29 06:37:58;;;;;;;30.50;15.50;;;6.80;99.90;;;;;;5034822;28;19928;-77
2022/03/29 06:40:25;;;;;;;35.53;16.67;;;6.80;99.90;;;;;;5034322;28;20456;-76
2022/03/29 06:42:52;;;;;;;30.80;16.77;;;6.80;99.90;;;;;;5034164;28;20047;-75
2022/03/29 06:45:18;;;;;;;33.37;16.70;;;6.90;99.90;;;;;;5034241;28;20045;-75
2022/03/29 06:47:43;;;;;;;34.63;16.58;;;6.90;99.90;;;;;;5034280;28;20330;-76
2022/03/29 06:50:10;;;;;;;35.33;16.23;;;6.90;99.90;;;;;;5034292;28;20049;-76
2022/03/29 06:52:37;;;;;;;;;;;6.90;99.90;;;;;;5034988;28;20041;-75
2022/03/29 06:55:04;;;;;;;34.42;17.85;;;6.90;99.90;;;;;;5034103;28;19921;-76
2022/03/29 06:57:30;;;;;;;39.90;18.90;;;6.90;99.90;;;;;;5034383;28;20400;-76
2022/03/29 06:59:56;;;;;;;36.05;18.17;;;6.90;99.90;;;;;;5034103;28;20124;-78
2022/03/29 07:02:21;;;;;;;38.83;18.77;;;6.90;99.90;;;;;;5032842;28;20072;-77
2022/03/29 07:04:47;;;;;;;37.90;18.95;;;6.90;99.90;;;;;;5033986;28;20114;-77
2022/03/29 07:07:12;;;;;;;43.72;18.33;;;7.00;99.90;;;;;;5033972;28;20544;-77
2022/03/29 07:12:22;;;;;;;43.17;18.02;;;7.20;99.90;;;;;;5033337;28;20107;-77
2022/03/29 07:14:48;;;;;;;37.80;18.05;;;7.20;99.90;;;;;;5033309;28;20049;-77
2022/03/29 07:17:15;;;;;;;36.42;18.52;;;7.20;99.90;;;;;;5032684;28;20041;-75
2022/03/29 07:19:41;;;;;;;42.58;18.83;;;7.20;99.90;;;;;;5033783;28;20049;-78
2022/03/29 07:22:07;;;;;;;39.63;18.45;;;7.30;99.90;;;;;;5015831;28;20045;-76
2022/03/29 07:24:32;;;;;;;36.95;19.05;;;7.30;99.90;;;;;;5033418;28;20038;-75
2022/03/29 07:26:58;;;;;;;36.95;18.27;;;7.40;99.90;;;;;;5033226;28;20047;-76
2022/03/29 07:29:25;;;;;;;36.92;18.00;;;7.40;99.90;;;;;;5033049;28;20060;-76
2022/03/29 07:31:51;;;;;;;37.50;18.88;;;7.40;99.90;;;;;;5033434;28;20052;-76
2022/03/29 07:34:17;;;;;;;37.08;18.67;;;7.40;99.90;;;;;;5033430;28;20041;-75
2022/03/29 07:36:43;;;;;;;39.35;20.55;;;7.50;99.90;;;;;;5033493;28;20497;-76
2022/03/29 07:39:08;;;;;;;38.72;19.95;;;7.50;99.90;;;;;;5033440;28;20045;-76
2022/03/29 07:41:34;;;;;;;35.83;19.15;;;7.60;99.90;;;;;;5033345;28;20069;-75
2022/03/29 07:44:02;;;;;;;38.92;19.48;;;7.70;99.90;;;;;;5033443;28;20029;-75
2022/03/29 07:46:28;;;;;;;40.92;19.23;;;7.80;99.90;;;;;;5033103;28;20045;-75
2022/03/29 07:48:53;;;;;;;46.35;20.13;;;7.90;99.90;;;;;;5033281;28;20497;-76
2022/03/29 07:51:19;;;;;;;38.33;19.00;;;8.10;99.90;;;;;;5033395;28;20147;-76
2022/03/29 07:53:47;;;;;;;40.97;19.95;;;8.10;99.90;;;;;;5033276;28;20044;-76
2022/03/29 07:56:12;;;;;;;41.38;21.08;;;8.20;99.90;;;;;;5032163;28;20045;-75
2022/03/29 07:58:38;;;;;;;43.70;19.23;;;8.30;99.90;;;;;;5032666;28;20049;-76
2022/03/29 08:01:04;;;;;;;39.97;21.42;;;8.30;99.90;;;;;;5032140;28;20045;-76
2022/03/29 08:03:33;;;;;;;44.65;20.20;;;8.40;99.90;;;;;;5032150;28;20041;-75
2022/03/29 08:06:01;;;;;;;36.00;20.20;;;8.50;99.90;;;;;;5033453;28;20413;-76
2022/03/29 08:08:27;;;;;;;39.70;20.10;;;8.50;99.90;;;;;;5032889;28;20460;-76
2022/03/29 08:10:53;;;;;;;40.73;19.80;;;8.60;99.90;;;;;;5033035;28;20049;-76
2022/03/29 08:13:20;;;;;;;36.17;20.00;;;8.60;99.90;;;;;;5033117;28;20519;-77
2022/03/29 08:15:49;;;;;;;39.78;20.77;;;8.70;99.90;;;;;;5032750;28;20128;-76
2022/03/29 08:18:16;;;;;;;40.17;20.48;;;8.80;99.90;;;;;;5033147;28;20133;-74
2022/03/29 08:20:42;;;;;;;33.58;18.50;;;8.80;99.90;;;;;;5033057;28;20045;-75
2022/03/29 08:23:10;;;;;;;40.50;19.33;;;9.00;99.90;;;;;;5032782;28;20382;-77
2022/03/29 08:25:37;;;;;;;41.05;20.35;;;9.00;99.90;;;;;;5015191;28;20292;-76
2022/03/29 08:28:03;;;;;;;;;;;9.10;99.90;;;;;;5033394;28;20037;-75
2022/03/29 08:30:30;;;;;;;34.28;16.95;;;9.10;99.90;;;;;;5036478;28;20387;-76
2022/03/29 08:32:57;;;;;;;;;;;9.10;99.90;;;;;;5037047;28;20085;-78
2022/03/29 08:35:23;;;;;;;33.47;16.35;;;9.20;99.90;;;;;;5036620;28;20283;-79
2022/03/29 08:37:49;;;;;;;35.10;16.05;;;9.20;99.90;;;;;;5036376;28;20085;-78
2022/03/29 08:40:17;;;;;;;28.02;16.02;;;9.20;99.90;;;;;;5036703;28;20160;-77
2022/03/29 08:42:46;;;;;;;32.60;16.85;;;9.30;99.90;;;;;;5018643;28;20046;-76
2022/03/29 08:45:13;;;;;;;29.95;16.40;;;9.30;99.90;;;;;;5018705;28;20060;-77
2022/03/29 08:47:40;;;;;;;35.67;17.58;;;9.40;99.90;;;;;;5019033;28;20045;-77
2022/03/29 08:50:10;;;;;;;35.00;16.20;;;9.40;99.90;;;;;;5036353;28;20370;-76
2022/03/29 08:52:37;;;;;;;35.85;15.95;;;9.40;99.90;;;;;;5036134;28;20045;-76
2022/03/29 08:55:04;;;;;;;31.17;16.23;;;9.40;99.90;;;;;;5036099;28;20037;-76
2022/03/29 08:57:30;;;;;;;33.15;16.80;;;9.50;99.90;;;;;;5035851;28;20378;-77
2022/03/29 08:59:56;;;;;;;39.10;17.42;;;9.60;99.90;;;;;;5036116;28;20405;-76
2022/03/29 09:02:22;;;;;;;41.00;17.48;;;9.70;99.90;;;;;;5036079;28;20092;-75
2022/03/29 09:05:06;;;;;;;40.50;18.13;;;9.70;99.90;;;;;;5035890;28;20042;-75
2022/03/29 09:07:54;;;;;;;35.72;17.27;;;9.80;99.90;;;;;;5035704;28;20452;-75
2022/03/29 09:10:40;;;;;;;38.55;16.55;;;9.90;99.90;;;;;;5035756;28;20045;-75
2022/03/29 09:13:22;;;;;;;33.75;17.27;;;9.90;99.90;;;;;;5035875;28;20409;-75
2022/03/29 09:15:49;;;;;;;40.28;17.75;;;9.90;99.90;;;;;;5035701;28;20053;-75
2022/03/29 09:18:16;;;;;;;31.75;16.25;;;9.90;99.90;;;;;;5035833;28;20049;-74
2022/03/29 09:20:42;;;;;;;34.28;16.83;;;9.90;99.90;;;;;;5035406;28;20485;-76
2022/03/29 09:23:15;;;;;;;32.92;17.30;;;10.00;99.90;;;;;;5035524;28;20042;-76
2022/03/29 09:25:47;;;;;;;29.90;15.93;;;10.10;99.90;;;;;;5035608;28;20056;-75
2022/03/29 09:28:17;;;;;;;31.98;15.55;;;10.10;99.90;;;;;;5035441;28;20053;-75
2022/03/29 09:30:45;;;;;;;36.05;17.58;;;10.10;99.90;;;;;;5035190;28;20058;-75
2022/03/29 09:33:32;;;;;;;34.22;16.90;;;10.10;99.90;;;;;;5035081;28;20052;-75
2022/03/29 09:36:02;;;;;;;33.13;16.55;;;10.10;99.90;;;;;;5035696;28;20045;-75
2022/03/29 09:38:37;;;;;;;32.22;17.88;;;10.10;99.90;;;;;;5035313;28;20046;-75
2022/03/29 09:41:05;;;;;;;32.42;17.45;;;10.20;99.90;;;;;;5034904;28;20041;-75
2022/03/29 09:43:32;;;;;;;38.30;17.92;;;10.30;99.90;;;;;;5035166;28;20041;-74
2022/03/29 09:46:00;;;;;;;35.30;19.08;;;10.50;99.90;;;;;;5035334;28;20567;-75
2022/03/29 09:48:27;;;;;;;33.97;17.27;;;10.50;99.90;;;;;;5035180;28;20107;-75
2022/03/29 09:50:57;;;;;;;;;;;10.40;99.90;;;;;;5035662;28;20067;-75
2022/03/29 09:53:35;;;;;;;32.67;16.58;;;10.40;99.90;;;;;;5034947;28;19967;-75
2022/03/29 09:56:01;;;;;;;33.70;17.55;;;10.40;99.90;;;;;;5034641;28;20402;-75
2022/03/29 09:58:28;;;;;;;33.60;18.02;;;10.50;99.90;;;;;;5035302;28;20053;-76
2022/03/29 10:00:55;;;;;;;32.93;17.03;;;10.50;99.90;;;;;;5035160;28;20049;-74
2022/03/29 10:03:23;;;;;;;;;;;10.40;99.90;;;;;;5035236;28;20042;-74
2022/03/29 10:05:49;;;;;;;;;;;10.40;99.90;;;;;;5012988;28;20308;-75
2022/03/29 10:11:05;;;;;;;29.70;16.35;;;10.40;99.90;;;;;;5015708;28;20058;-78
2022/03/29 10:13:31;;;;;;;30.45;17.50;;;10.70;99.90;;;;;;5015283;28;20049;-77
2022/03/29 10:15:57;;;;;;;33.40;16.63;;;10.80;99.90;;;;;;5015095;28;20476;-77
2022/03/29 10:18:27;;;;;;;32.90;16.87;;;11.10;99.90;;;;;;5015161;28;20046;-74
2022/03/29 10:20:54;;;;;;;28.55;16.27;;;11.20;99.90;;;;;;5015040;28;20038;-74
2022/03/29 10:23:23;;;;;;;35.03;17.67;;;11.30;99.90;;;;;;5014729;28;20129;-73
2022/03/29 10:25:51;;;;;;;34.80;17.02;;;11.50;99.90;;;;;;5015353;28;20046;-71
2022/03/29 10:28:17;;;;;;;32.53;17.00;;;11.50;99.90;;;;;;5015237;28;20056;-74
2022/03/29 10:30:44;;;;;;;31.87;17.07;;;11.50;99.90;;;;;;5014871;28;20060;-74
2022/03/29 10:33:23;;;;;;;34.25;17.05;;;11.20;99.90;;;;;;5014782;28;20281;-72
2022/03/29 10:36:09;;;;;;;31.25;17.13;;;11.20;99.90;;;;;;5014816;28;20053;-74
2022/03/29 10:38:44;;;;;;;31.38;16.23;;;11.20;99.90;;;;;;5028935;28;20080;-77
2022/03/29 10:41:28;;;;;;;33.08;17.73;;;11.10;99.90;;;;;;5024108;28;20555;-73
2022/03/29 10:44:08;;;;;;;32.28;17.00;;;11.20;99.90;;;;;;5032549;28;20063;-77
2022/03/29 10:46:37;;;;;;;37.22;16.73;;;11.30;99.90;;;;;;5012694;28;20046;-75
2022/03/29 10:49:21;;;;;;;31.70;16.40;;;11.50;99.90;;;;;;5014023;28;20050;-75
2022/03/29 10:51:49;;;;;;;31.02;16.08;;;11.70;99.90;;;;;;5013949;28;20053;-76
2022/03/29 10:54:33;;;;;;;30.63;15.80;;;11.70;99.90;;;;;;5014263;28;20046;-76
2022/03/29 10:57:20;;;;;;;27.17;15.20;;;11.80;99.90;;;;;;5015123;28;20497;-77
2022/03/29 11:00:17;;;;;;;30.05;15.07;;;12.10;99.90;;;;;;5015550;28;20050;-79
2022/03/29 11:03:02;;;;;;;24.02;14.23;;;12.20;99.90;;;;;;5015459;28;20512;-78
2022/03/29 11:05:28;;;;;;;26.88;14.75;;;12.00;99.90;;;;;;5014713;28;20588;-77
2022/03/29 11:07:53;;;;;;;28.77;15.38;;;12.00;99.90;;;;;;5014360;28;20073;-78
2022/03/29 11:10:37;;;;;;;29.80;15.30;;;12.10;99.90;;;;;;5014522;28;20049;-75
2022/03/29 11:13:21;;;;;;;24.58;14.50;;;12.00;99.90;;;;;;5014324;28;20045;-77
2022/03/29 11:15:48;;;;;;;27.90;13.85;;;12.00;99.90;;;;;;5014626;28;20046;-75
2022/03/29 11:18:36;;;;;;;24.20;14.37;;;12.00;99.90;;;;;;5014149;28;20124;-75
2022/03/29 11:21:04;;;;;;;28.65;14.35;;;12.20;99.90;;;;;;5014341;28;20089;-75
2022/03/29 11:23:40;;;;;;;24.48;14.57;;;12.30;99.90;;;;;;5013932;28;20049;-75
2022/03/29 11:26:12;;;;;;;27.17;13.18;;;12.30;99.90;;;;;;5013979;28;20125;-76
2022/03/29 11:28:50;;;;;;;29.88;14.50;;;12.30;99.90;;;;;;5014063;28;20058;-75
2022/03/29 11:31:18;;;;;;;29.58;13.43;;;12.60;99.90;;;;;;5013962;28;20060;-78
2022/03/29 11:33:49;;;;;;;27.88;15.00;;;12.70;99.90;;;;;;5013917;28;20536;-75
2022/03/29 11:36:16;;;;;;;25.25;14.80;;;12.70;99.90;;;;;;5013925;28;20057;-76
2022/03/29 11:38:42;;;;;;;26.88;13.95;;;12.70;99.90;;;;;;5013839;28;20042;-77
2022/03/29 11:41:25;;;;;;;24.77;13.63;;;12.70;99.90;;;;;;5013858;28;20046;-77
2022/03/29 11:43:55;;;;;;;24.73;13.77;;;12.50;99.90;;;;;;5013922;28;20466;-75
2022/03/29 11:46:21;;;;;;;28.10;13.23;;;12.30;99.90;;;;;;5013762;28;20085;-75
2022/03/29 11:48:50;;;;;;;26.65;13.00;;;12.20;99.90;;;;;;4996388;28;20437;-74
2022/03/29 11:51:17;;;;;;;30.23;13.85;;;12.10;99.90;;;;;;5013686;28;20056;-76
2022/03/29 11:53:43;;;;;;;34.42;14.18;;;12.20;99.90;;;;;;5013908;28;20045;-77
2022/03/29 11:56:19;;;;;;;25.63;13.73;;;12.30;99.90;;;;;;5013608;28;20046;-77
2022/03/29 11:58:53;;;;;;;32.28;13.85;;;12.40;99.90;;;;;;5013941;28;20281;-77
2022/03/29 12:01:27;;;;;;;27.95;15.07;;;12.40;99.90;;;;;;5013765;28;20042;-76
2022/03/29 12:03:58;;;;;;;22.23;13.63;;;12.60;99.90;;;;;;5015115;28;20088;-75
2022/03/29 12:06:28;;;;;;;28.13;13.68;;;13.00;99.90;;;;;;5017834;28;20448;-77
2022/03/29 12:08:57;;;;;;;27.33;14.18;;;13.30;99.90;;;;;;5017356;28;20041;-75
2022/03/29 12:11:39;;;;;;;25.45;13.63;;;13.50;99.90;;;;;;5017232;28;20128;-76
2022/03/29 12:14:12;;;;;;;31.08;13.98;;;13.80;99.90;;;;;;5017509;28;20069;-75
2022/03/29 12:16:41;;;;;;;24.38;13.00;;;13.90;99.90;;;;;;5017084;28;20053;-78
2022/03/29 12:19:13;;;;;;;28.25;14.70;;;13.70;99.90;;;;;;5017492;28;20057;-78
2022/03/29 12:21:42;;;;;;;22.23;12.90;;;13.60;99.90;;;;;;5015742;28;20085;-78
2022/03/29 12:24:09;;;;;;;21.45;12.13;;;13.50;99.90;;;;;;5016964;28;20125;-77
2022/03/29 12:26:57;;;;;;;29.00;12.73;;;13.30;99.90;;;;;;5017141;28;20046;-76
2022/03/29 12:29:26;;;;;;;28.10;13.35;;;13.10;99.90;;;;;;5016993;28;20104;-76
2022/03/29 12:31:53;;;;;;;24.88;12.65;;;13.00;99.90;;;;;;5017051;28;20054;-77
2022/03/29 12:34:23;;;;;;;24.67;12.02;;;13.00;99.90;;;;;;5016995;28;20050;-75
2022/03/29 12:36:52;;;;;;;24.85;13.05;;;13.30;99.90;;;;;;5016987;28;20046;-77
2022/03/29 12:39:18;;;;;;;25.67;12.80;;;13.30;99.90;;;;;;5017227;28;20050;-75
2022/03/29 12:41:55;;;;;;;20.43;11.73;;;13.40;99.90;;;;;;5017250;28;20473;-76
2022/03/29 12:44:27;;;;;;;25.77;12.30;;;13.60;99.90;;;;;;5016759;28;20045;-75
2022/03/29 12:46:54;;;;;;;23.08;11.77;;;13.90;99.90;;;;;;5016656;28;20553;-76
2022/03/29 12:49:21;;;;;;;23.98;11.70;;;14.00;99.90;;;;;;5016682;28;20042;-78
2022/03/29 12:51:54;;;;;;;20.83;10.73;;;14.00;99.90;;;;;;5016608;28;20577;-77
2022/03/29 12:54:20;;;;;;;20.33;11.55;;;13.90;99.90;;;;;;5016916;28;20046;-76